Terminal Aerodrome Forecast
Issued by NWS

Current Version | Previous Version | Text Only | Print | Product List | Glossary On
Versions: 1 2 3 4 5 6 7 8 9 10 11 12 13 14
000
FTUS45 KABQ 302300
TAFROW
TAF
KROW 302338Z 3100/3124 14006KT P6SM VCSH OVC020
     FM310300 14006KT 3SM RA BR OVC010
     FM311000 VRB04KT 5SM -RA BR OVC020
     FM312000 12005KT P6SM VCSH BKN040=

USA.gov is the U.S. government's official web portal to all federal, state and local government web resources and services.